sensor_id;sensor_type;location;lat;lon;timestamp;pressure;altitude;pressure_sealevel;temperature;humidity
70571;BME280;58135;50.948;-1.458;2022-10-03T00:02:05;102309.47;;;13.67;16.92
70571;BME280;58135;50.948;-1.458;2022-10-03T00:04:24;102311.70;;;11.98;16.89
70571;BME280;58135;50.948;-1.458;2022-10-03T00:06:49;102314.52;;;11.12;16.81
70571;BME280;58135;50.948;-1.458;2022-10-03T00:09:16;102316.49;;;11.91;16.80
70571;BME280;58135;50.948;-1.458;2022-10-03T00:11:41;102312.84;;;11.71;16.76
70571;BME280;58135;50.948;-1.458;2022-10-03T00:14:01;102320.02;;;13.34;16.66
70571;BME280;58135;50.948;-1.458;2022-10-03T00:16:28;102324.13;;;12.52;16.77
70571;BME280;58135;50.948;-1.458;2022-10-03T00:18:55;102324.66;;;12.33;16.56
70571;BME280;58135;50.948;-1.458;2022-10-03T00:21:24;102325.89;;;11.44;16.76
70571;BME280;58135;50.948;-1.458;2022-10-03T00:23:45;102330.43;;;13.34;16.84
70571;BME280;58135;50.948;-1.458;2022-10-03T00:26:11;102330.93;;;12.52;16.87
70571;BME280;58135;50.948;-1.458;2022-10-03T00:31:07;102336.03;;;13.99;16.76
70571;BME280;58135;50.948;-1.458;2022-10-03T00:33:28;102340.04;;;12.18;16.86
70571;BME280;58135;50.948;-1.458;2022-10-03T00:35:58;102341.61;;;11.92;16.92
70571;BME280;58135;50.948;-1.458;2022-10-03T00:38:27;102340.46;;;11.88;16.91
70571;BME280;58135;50.948;-1.458;2022-10-03T00:40:55;102344.33;;;12.70;16.93
70571;BME280;58135;50.948;-1.458;2022-10-03T00:43:19;102344.71;;;12.70;16.88
70571;BME280;58135;50.948;-1.458;2022-10-03T00:48:12;102344.08;;;13.49;16.82
70571;BME280;58135;50.948;-1.458;2022-10-03T00:50:32;102343.94;;;12.47;16.82
70571;BME280;58135;50.948;-1.458;2022-10-03T00:53:00;102344.15;;;11.61;16.92
70571;BME280;58135;50.948;-1.458;2022-10-03T00:55:19;102343.83;;;12.44;16.92
70571;BME280;58135;50.948;-1.458;2022-10-03T00:57:52;102336.07;;;12.38;16.94
70571;BME280;58135;50.948;-1.458;2022-10-03T01:00:13;102335.65;;;13.24;16.95
70571;BME280;58135;50.948;-1.458;2022-10-03T01:02:42;102340.36;;;12.26;17.00
70571;BME280;58135;50.948;-1.458;2022-10-03T01:05:01;102344.37;;;12.24;16.97
70571;BME280;58135;50.948;-1.458;2022-10-03T01:07:34;102343.47;;;11.24;16.94
70571;BME280;58135;50.948;-1.458;2022-10-03T01:10:02;102341.54;;;12.02;16.88
70571;BME280;58135;50.948;-1.458;2022-10-03T01:12:24;102338.53;;;11.70;16.99
70571;BME280;58135;50.948;-1.458;2022-10-03T01:14:48;102336.69;;;12.43;17.15
70571;BME280;58135;50.948;-1.458;2022-10-03T01:17:10;102339.16;;;11.68;17.24
70571;BME280;58135;50.948;-1.458;2022-10-03T01:19:43;102339.82;;;11.70;17.23
70571;BME280;58135;50.948;-1.458;2022-10-03T01:22:03;102340.73;;;13.48;17.20
70571;BME280;58135;50.948;-1.458;2022-10-03T01:24:34;102344.13;;;11.67;17.14
70571;BME280;58135;50.948;-1.458;2022-10-03T01:26:52;102349.27;;;11.70;17.02
70571;BME280;58135;50.948;-1.458;2022-10-03T01:29:13;102348.88;;;12.61;16.97
70571;BME280;58135;50.948;-1.458;2022-10-03T01:31:42;102353.93;;;11.50;16.72
70571;BME280;58135;50.948;-1.458;2022-10-03T01:34:06;102355.86;;;11.27;16.77
70571;BME280;58135;50.948;-1.458;2022-10-03T01:36:31;102352.02;;;10.31;16.82
70571;BME280;58135;50.948;-1.458;2022-10-03T01:38:56;102347.82;;;11.94;16.67
70571;BME280;58135;50.948;-1.458;2022-10-03T01:41:25;102346.66;;;13.52;16.78
70571;BME280;58135;50.948;-1.458;2022-10-03T01:43:49;102348.16;;;11.79;16.88
70571;BME280;58135;50.948;-1.458;2022-10-03T01:46:15;102343.86;;;12.79;16.85
70571;BME280;58135;50.948;-1.458;2022-10-03T01:48:42;102337.05;;;12.68;16.77
70571;BME280;58135;50.948;-1.458;2022-10-03T01:51:07;102339.44;;;11.74;16.81
70571;BME280;58135;50.948;-1.458;2022-10-03T01:53:32;102338.34;;;13.48;16.89
70571;BME280;58135;50.948;-1.458;2022-10-03T01:55:57;102338.49;;;11.75;16.93
70571;BME280;58135;50.948;-1.458;2022-10-03T01:58:24;102338.36;;;11.75;16.94
70571;BME280;58135;50.948;-1.458;2022-10-03T02:00:49;102336.36;;;11.73;16.99
70571;BME280;58135;50.948;-1.458;2022-10-03T02:03:15;102341.92;;;11.69;17.03
70571;BME280;58135;50.948;-1.458;2022-10-03T02:05:40;102342.74;;;12.47;16.91
70571;BME280;58135;50.948;-1.458;2022-10-03T02:08:04;102339.23;;;11.47;16.87
70571;BME280;58135;50.948;-1.458;2022-10-03T02:10:34;102333.71;;;9.61;16.93
70571;BME280;58135;50.948;-1.458;2022-10-03T02:12:59;102336.16;;;11.41;17.03
70571;BME280;58135;50.948;-1.458;2022-10-03T02:15:20;102336.12;;;11.37;17.02
70571;BME280;58135;50.948;-1.458;2022-10-03T02:17:50;102334.45;;;11.29;16.96
70571;BME280;58135;50.948;-1.458;2022-10-03T02:20:17;102335.40;;;12.07;16.81
70571;BME280;58135;50.948;-1.458;2022-10-03T02:22:40;102332.50;;;11.91;16.92
70571;BME280;58135;50.948;-1.458;2022-10-03T02:25:10;102327.05;;;12.15;16.96
70571;BME280;58135;50.948;-1.458;2022-10-03T02:27:41;102316.44;;;12.25;16.91
70571;BME280;58135;50.948;-1.458;2022-10-03T02:30:03;102315.61;;;11.27;16.94
70571;BME280;58135;50.948;-1.458;2022-10-03T02:32:35;102320.23;;;12.88;17.04
70571;BME280;58135;50.948;-1.458;2022-10-03T02:37:18;102321.26;;;12.08;16.90
70571;BME280;58135;50.948;-1.458;2022-10-03T02:39:48;102322.82;;;12.05;16.84
70571;BME280;58135;50.948;-1.458;2022-10-03T02:47:13;102312.15;;;10.71;17.00
70571;BME280;58135;50.948;-1.458;2022-10-03T02:54:21;102314.92;;;11.62;17.05
70571;BME280;58135;50.948;-1.458;2022-10-03T02:59:16;102323.40;;;9.66;17.03
70571;BME280;58135;50.948;-1.458;2022-10-03T03:04:05;102307.84;;;11.22;16.96
70571;BME280;58135;50.948;-1.458;2022-10-03T03:06:29;102303.00;;;12.28;17.13
70571;BME280;58135;50.948;-1.458;2022-10-03T03:08:53;102298.19;;;9.86;17.25
70571;BME280;58135;50.948;-1.458;2022-10-03T03:11:15;102308.08;;;10.87;17.17
70571;BME280;58135;50.948;-1.458;2022-10-03T03:13:42;102310.67;;;12.65;17.25
70571;BME280;58135;50.948;-1.458;2022-10-03T03:16:13;102312.37;;;11.87;17.33
70571;BME280;58135;50.948;-1.458;2022-10-03T03:18:30;102311.76;;;11.11;17.32
70571;BME280;58135;50.948;-1.458;2022-10-03T03:21:00;102316.36;;;12.90;17.25
70571;BME280;58135;50.948;-1.458;2022-10-03T03:23:31;102319.60;;;11.21;17.32
70571;BME280;58135;50.948;-1.458;2022-10-03T03:26:03;102319.72;;;13.03;17.33
70571;BME280;58135;50.948;-1.458;2022-10-03T03:28:13;102314.50;;;12.19;17.33
70571;BME280;58135;50.948;-1.458;2022-10-03T03:30:36;102309.89;;;12.23;17.08
70571;BME280;58135;50.948;-1.458;2022-10-03T03:33:04;102298.42;;;12.05;16.79
70571;BME280;58135;50.948;-1.458;2022-10-03T03:35:29;102292.12;;;10.99;17.20
70571;BME280;58135;50.948;-1.458;2022-10-03T03:37:53;102290.04;;;12.98;16.96
70571;BME280;58135;50.948;-1.458;2022-10-03T03:40:26;102290.65;;;10.92;17.32
70571;BME280;58135;50.948;-1.458;2022-10-03T03:42:51;102287.27;;;12.07;17.38
70571;BME280;58135;50.948;-1.458;2022-10-03T03:45:12;102281.10;;;12.25;17.29
70571;BME280;58135;50.948;-1.458;2022-10-03T03:47:40;102280.68;;;12.34;17.28
70571;BME280;58135;50.948;-1.458;2022-10-03T03:50:04;102283.39;;;11.67;17.29
70571;BME280;58135;50.948;-1.458;2022-10-03T03:52:31;102279.20;;;14.45;17.27
70571;BME280;58135;50.948;-1.458;2022-10-03T03:54:59;102282.42;;;11.85;17.27
70571;BME280;58135;50.948;-1.458;2022-10-03T03:57:21;102278.37;;;12.78;17.27
70571;BME280;58135;50.948;-1.458;2022-10-03T03:59:50;102274.38;;;12.07;17.29
70571;BME280;58135;50.948;-1.458;2022-10-03T04:02:14;102267.31;;;13.92;17.27
70571;BME280;58135;50.948;-1.458;2022-10-03T04:04:43;102270.94;;;12.17;17.19
70571;BME280;58135;50.948;-1.458;2022-10-03T04:06:59;102271.86;;;11.97;17.21
70571;BME280;58135;50.948;-1.458;2022-10-03T04:11:54;102269.15;;;11.05;17.27
70571;BME280;58135;50.948;-1.458;2022-10-03T04:14:26;102269.86;;;13.67;17.30
70571;BME280;58135;50.948;-1.458;2022-10-03T04:16:47;102279.32;;;12.88;17.34
70571;BME280;58135;50.948;-1.458;2022-10-03T04:19:09;102281.95;;;13.84;17.31
70571;BME280;58135;50.948;-1.458;2022-10-03T04:21:44;102282.56;;;12.12;17.29
70571;BME280;58135;50.948;-1.458;2022-10-03T04:24:02;102284.06;;;11.98;17.37
70571;BME280;58135;50.948;-1.458;2022-10-03T04:26:27;102287.26;;;12.56;17.36
70571;BME280;58135;50.948;-1.458;2022-10-03T04:28:58;102291.71;;;12.62;17.40
70571;BME280;58135;50.948;-1.458;2022-10-03T04:31:22;102292.45;;;11.88;17.30
70571;BME280;58135;50.948;-1.458;2022-10-03T04:33:46;102294.65;;;12.13;17.35
70571;BME280;58135;50.948;-1.458;2022-10-03T04:36:14;102295.80;;;14.10;17.34
70571;BME280;58135;50.948;-1.458;2022-10-03T04:38:38;102297.15;;;11.53;17.33
70571;BME280;58135;50.948;-1.458;2022-10-03T04:40:58;102298.17;;;13.39;17.30
70571;BME280;58135;50.948;-1.458;2022-10-03T04:43:24;102299.45;;;11.71;17.31
70571;BME280;58135;50.948;-1.458;2022-10-03T04:45:56;102292.80;;;13.62;17.36
70571;BME280;58135;50.948;-1.458;2022-10-03T04:48:13;102290.23;;;13.80;17.33
70571;BME280;58135;50.948;-1.458;2022-10-03T04:50:39;102292.87;;;13.03;17.33
70571;BME280;58135;50.948;-1.458;2022-10-03T04:53:18;102291.18;;;11.27;17.28
70571;BME280;58135;50.948;-1.458;2022-10-03T04:55:32;102290.21;;;13.04;17.31
70571;BME280;58135;50.948;-1.458;2022-10-03T04:57:55;102286.54;;;11.33;17.32
70571;BME280;58135;50.948;-1.458;2022-10-03T05:00:21;102282.92;;;14.94;17.36
70571;BME280;58135;50.948;-1.458;2022-10-03T05:02:47;102277.97;;;10.64;17.37
70571;BME280;58135;50.948;-1.458;2022-10-03T05:05:22;102270.62;;;13.38;17.35
70571;BME280;58135;50.948;-1.458;2022-10-03T05:07:37;102270.17;;;12.69;17.32
70571;BME280;58135;50.948;-1.458;2022-10-03T05:10:03;102271.78;;;12.77;17.30
70571;BME280;58135;50.948;-1.458;2022-10-03T05:12:30;102263.02;;;11.92;17.03
70571;BME280;58135;50.948;-1.458;2022-10-03T05:15:06;102262.89;;;13.68;17.08
70571;BME280;58135;50.948;-1.458;2022-10-03T05:17:20;102264.03;;;13.73;17.33
70571;BME280;58135;50.948;-1.458;2022-10-03T05:19:48;102266.08;;;12.95;17.38
70571;BME280;58135;50.948;-1.458;2022-10-03T05:22:13;102260.55;;;13.97;17.27
70571;BME280;58135;50.948;-1.458;2022-10-03T05:24:37;102263.67;;;13.14;17.27
70571;BME280;58135;50.948;-1.458;2022-10-03T05:27:01;102270.88;;;13.34;17.38
70571;BME280;58135;50.948;-1.458;2022-10-03T05:29:30;102277.15;;;13.52;17.43
70571;BME280;58135;50.948;-1.458;2022-10-03T05:32:00;102280.91;;;12.75;17.40
70571;BME280;58135;50.948;-1.458;2022-10-03T05:34:22;102281.20;;;13.64;17.37
70571;BME280;58135;50.948;-1.458;2022-10-03T05:36:53;102281.91;;;13.63;17.37
70571;BME280;58135;50.948;-1.458;2022-10-03T05:41:32;102279.39;;;12.92;17.25
70571;BME280;58135;50.948;-1.458;2022-10-03T05:44:02;102279.30;;;12.89;17.24
70571;BME280;58135;50.948;-1.458;2022-10-03T05:46:40;102286.74;;;12.11;17.26
70571;BME280;58135;50.948;-1.458;2022-10-03T05:48:54;102284.91;;;13.99;17.27
70571;BME280;58135;50.948;-1.458;2022-10-03T05:51:37;102281.65;;;12.22;17.23
70571;BME280;58135;50.948;-1.458;2022-10-03T05:53:54;102277.57;;;13.15;17.22
70571;BME280;58135;50.948;-1.458;2022-10-03T05:56:07;102275.07;;;14.99;17.22
70571;BME280;58135;50.948;-1.458;2022-10-03T05:58:39;102269.86;;;14.19;17.21
70571;BME280;58135;50.948;-1.458;2022-10-03T06:01:09;102270.99;;;12.43;17.22
70571;BME280;58135;50.948;-1.458;2022-10-03T06:05:57;102272.14;;;12.55;17.24
70571;BME280;58135;50.948;-1.458;2022-10-03T06:08:25;102263.78;;;13.50;17.27
70571;BME280;58135;50.948;-1.458;2022-10-03T06:10:42;102258.82;;;11.75;17.23
70571;BME280;58135;50.948;-1.458;2022-10-03T06:13:10;102266.07;;;12.72;17.22
70571;BME280;58135;50.948;-1.458;2022-10-03T06:15:42;102269.89;;;13.70;17.23
70571;BME280;58135;50.948;-1.458;2022-10-03T06:17:58;102267.16;;;13.76;17.25
70571;BME280;58135;50.948;-1.458;2022-10-03T06:23:00;102266.63;;;12.09;17.22
70571;BME280;58135;50.948;-1.458;2022-10-03T06:30:11;102264.88;;;13.05;17.10
70571;BME280;58135;50.948;-1.458;2022-10-03T06:37:33;102272.54;;;13.26;17.11
70571;BME280;58135;50.948;-1.458;2022-10-03T06:42:25;102267.40;;;12.53;17.07
70571;BME280;58135;50.948;-1.458;2022-10-03T06:44:52;102267.59;;;11.69;17.09
70571;BME280;58135;50.948;-1.458;2022-10-03T06:47:13;102265.31;;;12.66;17.07
70571;BME280;58135;50.948;-1.458;2022-10-03T06:49:39;102261.95;;;14.44;17.10
70571;BME280;58135;50.948;-1.458;2022-10-03T06:52:05;102256.88;;;13.62;17.08
70571;BME280;58135;50.948;-1.458;2022-10-03T06:54:46;102251.90;;;12.78;17.09
70571;BME280;58135;50.948;-1.458;2022-10-03T06:56:57;102252.94;;;13.74;17.11
70571;BME280;58135;50.948;-1.458;2022-10-03T06:59:23;102254.11;;;12.91;17.12
70571;BME280;58135;50.948;-1.458;2022-10-03T07:01:46;102261.32;;;13.00;17.12
70571;BME280;58135;50.948;-1.458;2022-10-03T07:04:11;102264.92;;;14.01;17.13
70571;BME280;58135;50.948;-1.458;2022-10-03T07:06:37;102263.87;;;15.84;17.06
70571;BME280;58135;50.948;-1.458;2022-10-03T07:09:08;102269.44;;;12.30;17.12
70571;BME280;58135;50.948;-1.458;2022-10-03T07:11:31;102271.79;;;13.32;17.17
70571;BME280;58135;50.948;-1.458;2022-10-03T07:23:42;102274.86;;;14.64;17.15
70571;BME280;58135;50.948;-1.458;2022-10-03T07:30:49;102277.84;;;14.13;17.16
70571;BME280;58135;50.948;-1.458;2022-10-03T07:35:43;102274.76;;;13.48;17.10
70571;BME280;58135;50.948;-1.458;2022-10-03T07:38:06;102267.19;;;15.38;17.09
70571;BME280;58135;50.948;-1.458;2022-10-03T07:40:42;102264.45;;;16.33;17.11
70571;BME280;58135;50.948;-1.458;2022-10-03T07:43:01;102264.04;;;14.68;17.10
70571;BME280;58135;50.948;-1.458;2022-10-03T07:45:27;102264.29;;;16.64;17.11
70571;BME280;58135;50.948;-1.458;2022-10-03T07:47:56;102263.99;;;15.94;17.11
70571;BME280;58135;50.948;-1.458;2022-10-03T07:50:23;102260.44;;;14.24;17.12
70571;BME280;58135;50.948;-1.458;2022-10-03T07:52:48;102268.99;;;16.93;17.14
70571;BME280;58135;50.948;-1.458;2022-10-03T07:57:29;102275.65;;;13.79;17.15
70571;BME280;58135;50.948;-1.458;2022-10-03T08:00:01;102276.43;;;14.92;17.12
70571;BME280;58135;50.948;-1.458;2022-10-03T08:02:25;102282.31;;;14.26;17.18
70571;BME280;58135;50.948;-1.458;2022-10-03T08:04:56;102283.39;;;17.13;17.20
70571;BME280;58135;50.948;-1.458;2022-10-03T08:09:41;102288.60;;;14.79;17.16
70571;BME280;58135;50.948;-1.458;2022-10-03T08:12:07;102290.40;;;13.16;17.18
70571;BME280;58135;50.948;-1.458;2022-10-03T08:14:30;102295.36;;;15.11;17.17
70571;BME280;58135;50.948;-1.458;2022-10-03T08:17:11;102293.43;;;15.34;17.10
70571;BME280;58135;50.948;-1.458;2022-10-03T08:19:20;102290.40;;;15.59;17.12
70571;BME280;58135;50.948;-1.458;2022-10-03T08:21:51;102295.58;;;13.96;17.19
70571;BME280;58135;50.948;-1.458;2022-10-03T08:24:15;102301.24;;;14.05;17.18
70571;BME280;58135;50.948;-1.458;2022-10-03T08:29:07;102314.16;;;14.42;17.13
70571;BME280;58135;50.948;-1.458;2022-10-03T08:31:36;102319.06;;;14.58;16.69
70571;BME280;58135;50.948;-1.458;2022-10-03T08:33:57;102318.07;;;14.64;16.76
70571;BME280;58135;50.948;-1.458;2022-10-03T08:38:49;102310.27;;;16.06;17.00
70571;BME280;58135;50.948;-1.458;2022-10-03T08:43:53;102314.31;;;14.69;17.07
70571;BME280;58135;50.948;-1.458;2022-10-03T08:46:05;102313.27;;;15.83;16.90
70571;BME280;58135;50.948;-1.458;2022-10-03T08:48:34;102309.16;;;15.95;16.97
70571;BME280;58135;50.948;-1.458;2022-10-03T08:50:51;102307.52;;;17.07;17.02
70571;BME280;58135;50.948;-1.458;2022-10-03T08:55:43;102299.28;;;16.43;16.83
70571;BME280;58135;50.948;-1.458;2022-10-03T08:58:23;102296.14;;;16.77;16.83
70571;BME280;58135;50.948;-1.458;2022-10-03T09:00:28;102297.07;;;16.20;16.85
70571;BME280;58135;50.948;-1.458;2022-10-03T09:05:32;102301.75;;;17.51;16.89
70571;BME280;58135;50.948;-1.458;2022-10-03T09:07:57;102296.61;;;17.74;16.75
70571;BME280;58135;50.948;-1.458;2022-10-03T09:15:08;102281.00;;;17.13;16.49
70571;BME280;58135;50.948;-1.458;2022-10-03T09:20:06;102273.70;;;17.35;16.66
70571;BME280;58135;50.948;-1.458;2022-10-03T09:22:24;102272.52;;;15.02;16.62
70571;BME280;58135;50.948;-1.458;2022-10-03T09:27:15;102263.74;;;17.06;16.82
70571;BME280;58135;50.948;-1.458;2022-10-03T09:29:43;102266.07;;;16.32;17.08
70571;BME280;58135;50.948;-1.458;2022-10-03T09:34:37;102264.24;;;17.74;16.82
70571;BME280;58135;50.948;-1.458;2022-10-03T09:44:15;102264.80;;;17.00;16.55
70571;BME280;58135;50.948;-1.458;2022-10-03T09:51:32;102256.14;;;18.01;16.27
70571;BME280;58135;50.948;-1.458;2022-10-03T09:58:49;102259.57;;;17.73;16.61
70571;BME280;58135;50.948;-1.458;2022-10-03T10:01:13;102259.25;;;18.09;16.40
70571;BME280;58135;50.948;-1.458;2022-10-03T10:06:04;102253.38;;;19.21;16.53
70571;BME280;58135;50.948;-1.458;2022-10-03T10:08:33;102251.37;;;15.88;16.51
70571;BME280;58135;50.948;-1.458;2022-10-03T10:10:53;102255.06;;;17.78;15.53
70571;BME280;58135;50.948;-1.458;2022-10-03T10:13:15;102249.31;;;16.62;15.87
70571;BME280;58135;50.948;-1.458;2022-10-03T10:21:02;102246.17;;;18.14;15.86
70571;BME280;58135;50.948;-1.458;2022-10-03T10:23:06;102246.42;;;19.86;16.05
70571;BME280;58135;50.948;-1.458;2022-10-03T10:25:36;102244.63;;;17.48;15.96
70571;BME280;58135;50.948;-1.458;2022-10-03T10:28:01;102246.25;;;17.02;16.22
70571;BME280;58135;50.948;-1.458;2022-10-03T10:30:18;102245.08;;;18.28;15.49
70571;BME280;58135;50.948;-1.458;2022-10-03T10:40:08;102238.81;;;17.58;15.72
70571;BME280;58135;50.948;-1.458;2022-10-03T10:49:53;102233.09;;;17.48;15.06
70571;BME280;58135;50.948;-1.458;2022-10-03T10:52:12;102234.70;;;18.30;14.82
70571;BME280;58135;50.948;-1.458;2022-10-03T10:57:01;102235.54;;;17.62;14.84
70571;BME280;58135;50.948;-1.458;2022-10-03T11:01:52;102231.21;;;18.55;14.30
70571;BME280;58135;50.948;-1.458;2022-10-03T11:04:23;102230.03;;;18.54;13.68
70571;BME280;58135;50.948;-1.458;2022-10-03T11:09:10;102225.12;;;19.59;14.20
70571;BME280;58135;50.948;-1.458;2022-10-03T11:21:14;102216.78;;;19.43;14.19
70571;BME280;58135;50.948;-1.458;2022-10-03T11:35:53;102205.20;;;19.86;14.02
70571;BME280;58135;50.948;-1.458;2022-10-03T11:38:07;102202.68;;;17.64;13.78
70571;BME280;58135;50.948;-1.458;2022-10-03T11:40:34;102204.36;;;20.59;13.64
70571;BME280;58135;50.948;-1.458;2022-10-03T11:42:56;102203.49;;;17.89;13.90
70571;BME280;58135;50.948;-1.458;2022-10-03T11:45:23;102205.91;;;17.99;13.56
70571;BME280;58135;50.948;-1.458;2022-10-03T11:47:50;102203.73;;;19.92;13.84
70571;BME280;58135;50.948;-1.458;2022-10-03T11:50:25;102199.94;;;20.62;13.69
70571;BME280;58135;50.948;-1.458;2022-10-03T11:52:40;102197.48;;;17.99;13.54
70571;BME280;58135;50.948;-1.458;2022-10-03T11:55:07;102195.94;;;18.37;13.81
70571;BME280;58135;50.948;-1.458;2022-10-03T11:57:27;102198.55;;;19.41;13.54
70571;BME280;58135;50.948;-1.458;2022-10-03T11:59:56;102197.05;;;19.50;13.45
70571;BME280;58135;50.948;-1.458;2022-10-03T12:04:50;102194.18;;;18.68;13.95
70571;BME280;58135;50.948;-1.458;2022-10-03T12:07:13;102196.27;;;17.79;13.93
70571;BME280;58135;50.948;-1.458;2022-10-03T12:09:41;102194.99;;;19.64;14.09
70571;BME280;58135;50.948;-1.458;2022-10-03T12:12:02;102195.37;;;18.21;14.35
70571;BME280;58135;50.948;-1.458;2022-10-03T12:14:26;102196.05;;;19.37;13.62
70571;BME280;58135;50.948;-1.458;2022-10-03T12:16:57;102192.65;;;19.45;13.51
70571;BME280;58135;50.948;-1.458;2022-10-03T12:19:21;102185.13;;;18.83;13.84
70571;BME280;58135;50.948;-1.458;2022-10-03T12:21:52;102180.99;;;20.52;13.64
70571;BME280;58135;50.948;-1.458;2022-10-03T12:24:15;102176.83;;;18.55;13.24
70571;BME280;58135;50.948;-1.458;2022-10-03T12:26:39;102176.58;;;18.11;13.27
70571;BME280;58135;50.948;-1.458;2022-10-03T12:28:56;102175.47;;;21.51;13.16
70571;BME280;58135;50.948;-1.458;2022-10-03T12:31:25;102172.18;;;19.86;13.63
70571;BME280;58135;50.948;-1.458;2022-10-03T12:33:51;102169.87;;;18.86;13.91
70571;BME280;58135;50.948;-1.458;2022-10-03T12:36:15;102170.41;;;18.85;13.45
70571;BME280;58135;50.948;-1.458;2022-10-03T12:38:47;102169.16;;;19.67;13.51
70571;BME280;58135;50.948;-1.458;2022-10-03T12:41:12;102167.93;;;20.51;13.30
70571;BME280;58135;50.948;-1.458;2022-10-03T12:43:40;102167.41;;;18.77;14.02
70571;BME280;58135;50.948;-1.458;2022-10-03T12:45:58;102164.44;;;19.37;14.04
70571;BME280;58135;50.948;-1.458;2022-10-03T12:48:33;102158.45;;;18.68;14.15
70571;BME280;58135;50.948;-1.458;2022-10-03T12:50:49;102155.24;;;19.42;13.83
70571;BME280;58135;50.948;-1.458;2022-10-03T12:53:20;102149.40;;;21.10;13.62
70571;BME280;58135;50.948;-1.458;2022-10-03T12:55:37;102143.37;;;20.51;13.69
70571;BME280;58135;50.948;-1.458;2022-10-03T12:58:04;102142.16;;;18.58;12.98
70571;BME280;58135;50.948;-1.458;2022-10-03T13:00:33;102140.09;;;19.97;13.38
70571;BME280;58135;50.948;-1.458;2022-10-03T13:03:09;102142.42;;;18.11;13.20
70571;BME280;58135;50.948;-1.458;2022-10-03T13:05:28;102138.78;;;19.79;13.46
70571;BME280;58135;50.948;-1.458;2022-10-03T13:07:49;102140.81;;;19.47;13.04
70571;BME280;58135;50.948;-1.458;2022-10-03T13:10:16;102136.20;;;19.32;13.59
70571;BME280;58135;50.948;-1.458;2022-10-03T13:12:39;102136.21;;;21.01;13.84
70571;BME280;58135;50.948;-1.458;2022-10-03T13:17:31;102127.15;;;17.70;13.22
70571;BME280;58135;50.948;-1.458;2022-10-03T13:19:55;102129.23;;;19.31;13.56
70571;BME280;58135;50.948;-1.458;2022-10-03T13:22:28;102124.55;;;18.03;13.59
70571;BME280;58135;50.948;-1.458;2022-10-03T13:24:48;102124.12;;;19.08;14.02
70571;BME280;58135;50.948;-1.458;2022-10-03T13:27:23;102121.76;;;18.96;13.29
70571;BME280;58135;50.948;-1.458;2022-10-03T13:29:37;102119.20;;;19.91;13.07
70571;BME280;58135;50.948;-1.458;2022-10-03T13:32:08;102116.39;;;18.18;13.39
70571;BME280;58135;50.948;-1.458;2022-10-03T13:34:26;102115.62;;;18.87;13.49
70571;BME280;58135;50.948;-1.458;2022-10-03T13:36:53;102117.92;;;17.23;13.23
70571;BME280;58135;50.948;-1.458;2022-10-03T13:39:16;102118.16;;;21.52;13.29
70571;BME280;58135;50.948;-1.458;2022-10-03T13:41:50;102111.93;;;20.51;12.82
70571;BME280;58135;50.948;-1.458;2022-10-03T13:44:12;102104.78;;;19.34;13.68
70571;BME280;58135;50.948;-1.458;2022-10-03T13:46:39;102101.11;;;18.96;14.36
70571;BME280;58135;50.948;-1.458;2022-10-03T13:48:58;102102.41;;;17.39;14.04
70571;BME280;58135;50.948;-1.458;2022-10-03T13:51:42;102100.77;;;17.57;13.70
70571;BME280;58135;50.948;-1.458;2022-10-03T13:53:56;102100.80;;;19.49;13.74
70571;BME280;58135;50.948;-1.458;2022-10-03T13:56:14;102095.66;;;18.36;13.32
70571;BME280;58135;50.948;-1.458;2022-10-03T13:58:44;102090.33;;;18.48;13.88
70571;BME280;58135;50.948;-1.458;2022-10-03T14:01:23;102090.83;;;19.48;14.01
70571;BME280;58135;50.948;-1.458;2022-10-03T14:03:34;102091.56;;;20.56;13.53
70571;BME280;58135;50.948;-1.458;2022-10-03T14:06:03;102089.49;;;17.82;14.00
70571;BME280;58135;50.948;-1.458;2022-10-03T14:08:34;102086.98;;;18.55;13.85
70571;BME280;58135;50.948;-1.458;2022-10-03T14:10:59;102084.51;;;21.15;14.26
70571;BME280;58135;50.948;-1.458;2022-10-03T14:13:18;102082.74;;;19.33;13.68
70571;BME280;58135;50.948;-1.458;2022-10-03T14:15:45;102083.15;;;19.10;13.63
70571;BME280;58135;50.948;-1.458;2022-10-03T14:18:11;102078.85;;;18.74;14.14
70571;BME280;58135;50.948;-1.458;2022-10-03T14:20:30;102078.88;;;17.75;14.05
70571;BME280;58135;50.948;-1.458;2022-10-03T14:23:02;102077.48;;;20.80;14.14
70571;BME280;58135;50.948;-1.458;2022-10-03T14:25:22;102072.47;;;19.90;14.15
70571;BME280;58135;50.948;-1.458;2022-10-03T14:27:48;102072.20;;;18.48;14.19
70571;BME280;58135;50.948;-1.458;2022-10-03T14:30:11;102068.21;;;19.07;14.60
70571;BME280;58135;50.948;-1.458;2022-10-03T14:32:41;102064.24;;;20.68;13.90
70571;BME280;58135;50.948;-1.458;2022-10-03T14:35:05;102068.32;;;18.13;14.14
70571;BME280;58135;50.948;-1.458;2022-10-03T14:37:31;102060.08;;;19.74;13.75
70571;BME280;58135;50.948;-1.458;2022-10-03T14:40:00;102059.96;;;19.50;14.07
70571;BME280;58135;50.948;-1.458;2022-10-03T14:42:31;102061.20;;;19.58;14.79
70571;BME280;58135;50.948;-1.458;2022-10-03T14:44:43;102059.07;;;19.79;14.11
70571;BME280;58135;50.948;-1.458;2022-10-03T14:47:09;102057.45;;;18.71;14.36
70571;BME280;58135;50.948;-1.458;2022-10-03T14:49:34;102054.55;;;20.51;14.06
70571;BME280;58135;50.948;-1.458;2022-10-03T14:52:01;102056.77;;;17.02;14.50
70571;BME280;58135;50.948;-1.458;2022-10-03T14:54:25;102056.25;;;21.92;14.17
70571;BME280;58135;50.948;-1.458;2022-10-03T14:56:50;102053.44;;;19.16;14.87
70571;BME280;58135;50.948;-1.458;2022-10-03T14:59:19;102050.84;;;20.31;14.59
70571;BME280;58135;50.948;-1.458;2022-10-03T15:01:46;102042.06;;;18.84;14.08
70571;BME280;58135;50.948;-1.458;2022-10-03T15:04:06;102037.03;;;17.95;14.00
70571;BME280;58135;50.948;-1.458;2022-10-03T15:06:36;102037.05;;;20.29;14.10
70571;BME280;58135;50.948;-1.458;2022-10-03T15:08:57;102042.94;;;20.95;14.45
70571;BME280;58135;50.948;-1.458;2022-10-03T15:11:25;102042.66;;;20.80;14.60
70571;BME280;58135;50.948;-1.458;2022-10-03T15:13:50;102034.49;;;17.76;14.54